• Join FlightAware (Why Join?)
  • Login
  • US Flag 
06:58AM EDT


 

Airport Tracker/Info


-or-


 

Live Flight TrackerFlight Track Log ✈ GGA1 ✈ 21-Apr-2013 ✈ KAHN - KSSI

Flight Track Log - Related Links

Times and Time Zones

All times are in EDT time to prevent confusion due to time zone crossing. See the GGA1 flight status page for this flight to view local times or setup timezone preferences in your user account.

Time Position Orientation Groundspeed Altitude Reporting Facility
EDT Latitude Longitude Course Direction KTS MPH feet Rate Location/Type
01:36PM 33.9167 -83.3000 151° Southeast 159 183 2,200  Level Atlanta TRACON
01:38PM 33.8650 -83.2783 161° South 175 201 4,100 1,560 Climbing Atlanta Center
01:39PM 33.8147 -83.2611 164° South 180 207 5,800 1,560 Climbing Atlanta Center
01:40PM 33.7606 -83.2592 178° South 185 213 7,300 1,560 Climbing Atlanta Center
01:41PM 33.7103 -83.2522 173° South 191 220 9,000 1,500 Climbing Atlanta Center
01:42PM 33.6334 -83.1010 151° Southeast  Level Estimated
01:42PM 33.6539 -83.2428 172° South 199 229 10,300  Level Atlanta Center
01:43PM 33.6142 -83.2206 155° Southeast 192 221 12,000 1,680 Climbing Atlanta Center
01:44PM 33.5636 -83.1811 147° Southeast 192 221 13,700 1,680 Climbing Atlanta Center
01:45PM 33.5197 -83.1392 141° Southeast 204 235 15,400 1,500 Climbing Atlanta Center
01:46PM 33.4714 -83.1100 153° Southeast 204 235 16,800 1,200 Climbing Atlanta Center
01:47PM 33.4167 -83.0683 148° Southeast 204 235 17,900 1,020 Climbing Atlanta Center
01:48PM 33.3664 -83.0289 147° Southeast 209 241 18,900 480 Climbing Atlanta Center
01:49PM 33.3053 -82.9800 146° Southeast 235 270 18,900  Level Atlanta Center
01:50PM 33.2403 -82.9311 148° Southeast 266 306 18,900  Level Atlanta Center
01:51PM 33.1814 -82.8897 150° Southeast 275 316 19,000  Climbing Atlanta Center
01:52PM 33.1183 -82.8408 147° Southeast 275 316 19,000  Level Atlanta Center
01:53PM 33.0553 -82.7947 148° Southeast 275 316 19,000  Level Atlanta Center
01:54PM 32.9922 -82.7508 150° Southeast 275 316 19,000  Level Atlanta Center
01:55PM 32.9292 -82.7000 146° Southeast 275 316 19,000  Level Atlanta Center
01:56PM 32.8617 -82.6467 146° Southeast 275 316 19,000  Level Atlanta Center
01:57PM 32.7986 -82.6031 150° Southeast 275 316 19,000  Level Atlanta Center
01:58PM 32.7375 -82.5547 146° Southeast 275 316 19,000  Level Atlanta Center
01:59PM 32.6722 -82.5064 148° Southeast 275 316 19,000  Level Atlanta Center
02:00PM 32.6111 -82.4606 148° Southeast 269 310 19,000  Level Atlanta Center
02:01PM 32.5478 -82.4125 147° Southeast 269 310 19,000  Level Atlanta Center
02:03PM 32.3947 -82.2997 148° Southeast 264 304 19,000  Level Jacksonville Center
02:04PM 32.3383 -82.2558 147° Southeast 264 304 19,000  Level Jacksonville Center
02:05PM 32.2692 -82.2069 149° Southeast 264 304 19,000  Level Jacksonville Center
02:06PM 32.2061 -82.1608 148° Southeast 270 311 19,000  Level Jacksonville Center
02:07PM 32.1494 -82.1197 148° Southeast 270 311 19,000  Level Jacksonville Center
02:08PM 32.0825 -82.0686 147° Southeast 270 311 19,000  Level Jacksonville Center
02:09PM 32.0236 -82.0275 149° Southeast 270 311 19,000  Level Jacksonville Center
02:10PM 31.9544 -81.9769 148° Southeast 270 311 19,000  Level Jacksonville Center
02:11PM 31.8914 -81.9286 147° Southeast 270 311 19,000 -120 Level Jacksonville Center
02:12PM 31.8347 -81.8875 148° Southeast 270 311 18,800 -960 Descending Jacksonville Center
02:13PM 31.7592 -81.8322 148° Southeast 287 330 17,100 -1,680 Descending Jacksonville Center
02:14PM 31.6878 -81.7769 147° Southeast 304 350 15,500 -1,920 Descending Jacksonville Center
02:15PM 31.6225 -81.7311 149° Southeast 304 350 13,300 -2,220 Descending Jacksonville Center
02:16PM 31.5447 -81.6736 148° Southeast 299 344 11,100 -2,100 Descending Jacksonville Center
02:17PM 31.4797 -81.6308 151° Southeast 299 344 9,100 -1,920 Descending Jacksonville Center
02:18PM 31.4144 -81.5853 149° Southeast 289 333 7,300 -1,920 Descending Jacksonville Center
02:19PM 31.3492 -81.5353 147° Southeast 269 310 5,300 -2,100 Descending Jacksonville Center
02:20PM 31.2903 -81.4922 148° Southeast 257 296 3,200 -2,160 Descending Jacksonville Center